createdAt,value
2019-02-05T00:01:16.830Z,98641.03
2019-02-05T00:03:46.271Z,98643.03
2019-02-05T00:06:15.779Z,98635.77
2019-02-05T00:08:45.338Z,98639.58
2019-02-05T00:11:14.856Z,98636.25
2019-02-05T00:13:44.524Z,98634.00
2019-02-05T00:16:14.021Z,98630.34
2019-02-05T00:18:43.537Z,98625.73
2019-02-05T00:21:13.057Z,98631.94
2019-02-05T00:23:42.553Z,98623.16
2019-02-05T00:26:12.035Z,98619.86
2019-02-05T00:28:41.515Z,98622.36
2019-02-05T00:31:11.013Z,98621.30
2019-02-05T00:33:40.490Z,98616.62
2019-02-05T00:36:10.602Z,98616.36
2019-02-05T00:38:40.048Z,98616.66
2019-02-05T00:41:09.513Z,98615.14
2019-02-05T00:43:39.027Z,98612.55
2019-02-05T00:46:08.472Z,98612.05
2019-02-05T00:48:37.955Z,98610.17
2019-02-05T00:51:07.816Z,98614.20
2019-02-05T00:53:37.282Z,98606.30
2019-02-05T00:56:17.153Z,98600.98
2019-02-05T00:58:37.979Z,98591.13
2019-02-05T01:01:07.480Z,98589.61
2019-02-05T01:03:36.947Z,98584.40
2019-02-05T01:06:06.443Z,98583.83
2019-02-05T01:08:35.908Z,98584.68
2019-02-05T01:11:05.393Z,98583.79
2019-02-05T01:13:34.927Z,98584.75
2019-02-05T01:16:04.471Z,98578.90
2019-02-05T01:18:34.006Z,98579.91
2019-02-05T01:21:03.468Z,98579.80
2019-02-05T01:23:32.885Z,98576.58
2019-02-05T01:26:02.453Z,98568.02
2019-02-05T01:28:32.062Z,98567.46
2019-02-05T01:31:01.502Z,98564.01
2019-02-05T01:33:31.474Z,98562.67
2019-02-05T01:36:00.941Z,98561.67
2019-02-05T01:38:30.387Z,98554.24
2019-02-05T01:40:59.873Z,98550.34
2019-02-05T01:43:29.336Z,98548.84
2019-02-05T01:45:58.796Z,98541.05
2019-02-05T01:48:28.583Z,98541.41
2019-02-05T01:50:58.012Z,98542.20
2019-02-05T01:53:27.457Z,98546.84
2019-02-05T01:55:56.950Z,98549.70
2019-02-05T01:58:26.427Z,98545.50
2019-02-05T02:00:55.942Z,98546.96
2019-02-05T02:03:25.723Z,98540.61
2019-02-05T02:05:55.399Z,98536.81
2019-02-05T02:08:24.889Z,98537.39
2019-02-05T02:10:54.364Z,98533.51
2019-02-05T02:13:23.866Z,98537.32
2019-02-05T02:15:53.318Z,98531.44
2019-02-05T02:18:23.091Z,98534.13
2019-02-05T02:20:52.602Z,98529.45
2019-02-05T02:23:22.107Z,98534.73
2019-02-05T02:25:51.551Z,98529.67
2019-02-05T02:28:21.084Z,98529.55
2019-02-05T02:30:50.514Z,98522.36
2019-02-05T02:33:20.063Z,98526.17
2019-02-05T02:35:49.556Z,98518.12
2019-02-05T02:38:19.026Z,98521.55
2019-02-05T02:40:48.492Z,98517.13
2019-02-05T02:43:18.098Z,98517.94
2019-02-05T02:45:47.617Z,98515.55
2019-02-05T02:48:17.045Z,98515.45
2019-02-05T02:50:46.606Z,98511.16
2019-02-05T02:53:16.079Z,98516.56
2019-02-05T02:55:45.584Z,98519.72
2019-02-05T02:58:15.086Z,98517.63
2019-02-05T03:00:44.541Z,98516.95
2019-02-05T03:03:14.040Z,98512.23
2019-02-05T03:05:44.356Z,98514.25
2019-02-05T03:08:13.890Z,98511.06
2019-02-05T03:10:43.370Z,98518.08
2019-02-05T03:13:12.869Z,98517.41
2019-02-05T03:15:42.342Z,98513.88
2019-02-05T03:18:12.088Z,98518.34
2019-02-05T03:20:41.513Z,98513.14
2019-02-05T03:23:11.029Z,98515.78
2019-02-05T03:25:40.640Z,98513.63
2019-02-05T03:28:10.262Z,98514.70
2019-02-05T03:30:39.738Z,98514.65
2019-02-05T03:33:09.184Z,98516.08
2019-02-05T03:35:38.949Z,98515.78
2019-02-05T03:38:08.428Z,98511.88
2019-02-05T03:41:00.564Z,98513.81
2019-02-05T03:43:30.022Z,98515.23
2019-02-05T03:45:59.802Z,98513.72
2019-02-05T03:48:29.423Z,98512.06
2019-02-05T03:51:09.485Z,98510.09
2019-02-05T03:53:52.770Z,98508.98
2019-02-05T03:57:32.091Z,98505.44
2019-02-05T04:00:28.504Z,98500.80
2019-02-05T04:03:28.290Z,98491.77
2019-02-05T04:06:11.047Z,98497.29
2019-02-05T04:09:15.399Z,98488.09
2019-02-05T04:11:57.937Z,98483.45
2019-02-05T04:14:37.586Z,98479.59
2019-02-05T04:17:23.238Z,98480.98
2019-02-05T04:20:30.336Z,98480.86
2019-02-05T04:23:21.315Z,98477.76
2019-02-05T04:26:04.126Z,98481.24
2019-02-05T04:28:52.801Z,98477.05
2019-02-05T04:32:02.980Z,98478.05
2019-02-05T04:35:22.602Z,98468.59
2019-02-05T04:38:05.892Z,98462.74
2019-02-05T04:41:13.609Z,98463.66
2019-02-05T04:43:53.584Z,98466.60
2019-02-05T04:46:46.000Z,98460.09
2019-02-05T04:49:29.450Z,98460.80
2019-02-05T04:52:27.692Z,98459.76
2019-02-05T04:55:04.488Z,98456.27
2019-02-05T04:57:56.621Z,98449.79
2019-02-05T05:00:32.429Z,98452.36
2019-02-05T05:03:41.687Z,98450.61
2019-02-05T05:06:34.086Z,98459.27
2019-02-05T05:09:11.290Z,98464.24
2019-02-05T05:11:41.250Z,98462.45
2019-02-05T05:14:10.944Z,98462.61
2019-02-05T05:16:40.412Z,98459.08
2019-02-05T05:19:09.920Z,98456.50
2019-02-05T05:21:39.775Z,98453.59
2019-02-05T05:24:09.315Z,98463.21
2019-02-05T05:26:38.808Z,98459.17
2019-02-05T05:29:08.346Z,98458.20
2019-02-05T05:31:37.868Z,98459.44
2019-02-05T05:34:07.336Z,98457.16
2019-02-05T05:36:36.961Z,98454.08
2019-02-05T05:39:08.947Z,98454.55
2019-02-05T05:41:38.412Z,98455.48
2019-02-05T05:44:09.593Z,98455.88
2019-02-05T05:46:39.375Z,98454.64
2019-02-05T05:49:09.629Z,98457.00
2019-02-05T05:51:39.613Z,98462.78
2019-02-05T05:54:09.077Z,98464.11
2019-02-05T05:56:38.560Z,98468.61
2019-02-05T05:59:08.280Z,98474.51
2019-02-05T06:01:37.815Z,98477.53
2019-02-05T06:04:07.279Z,98476.56
2019-02-05T06:06:36.855Z,98475.91
2019-02-05T06:09:08.145Z,98471.80
2019-02-05T06:11:38.102Z,98474.09
2019-02-05T06:14:07.555Z,98475.52
2019-02-05T06:16:37.039Z,98475.63
2019-02-05T06:19:06.555Z,98485.08
2019-02-05T06:21:36.035Z,98478.68
2019-02-05T06:24:06.433Z,98478.74
2019-02-05T06:26:35.940Z,98480.58
2019-02-05T06:29:05.569Z,98485.88
2019-02-05T06:31:35.078Z,98491.87
2019-02-05T06:34:04.581Z,98490.75
2019-02-05T06:36:33.994Z,98491.85
2019-02-05T06:39:05.381Z,98495.80
2019-02-05T06:41:34.893Z,98494.83
2019-02-05T06:44:04.414Z,98498.09
2019-02-05T06:46:33.910Z,98499.11
2019-02-05T06:49:03.439Z,98498.38
2019-02-05T06:51:32.914Z,98498.90
2019-02-05T06:54:02.759Z,98503.69
2019-02-05T06:56:32.284Z,98504.94
2019-02-05T06:59:01.791Z,98505.36
2019-02-05T07:01:31.264Z,98511.42
2019-02-05T07:04:00.757Z,98505.21
2019-02-05T07:06:30.233Z,98513.02
2019-02-05T07:08:59.681Z,98511.80
2019-02-05T07:11:29.213Z,98518.30
2019-02-05T07:13:58.659Z,98527.55
2019-02-05T07:16:28.267Z,98526.66
2019-02-05T07:18:57.844Z,98535.95
2019-02-05T07:21:27.308Z,98528.77
2019-02-05T07:23:56.805Z,98529.70
2019-02-05T07:26:26.476Z,98531.69
2019-02-05T07:29:00.029Z,98534.66
2019-02-05T07:31:27.067Z,98542.91
2019-02-05T07:33:56.575Z,98542.34
2019-02-05T07:36:26.185Z,98542.15
2019-02-05T07:38:55.750Z,98540.05
2019-02-05T07:41:25.631Z,98543.55
2019-02-05T07:43:55.171Z,98542.97
2019-02-05T07:46:24.641Z,98542.79
2019-02-05T07:48:54.351Z,98541.41
2019-02-05T07:51:23.890Z,98549.46
2019-02-05T07:53:53.373Z,98553.69
2019-02-05T07:56:22.874Z,98557.00
2019-02-05T07:58:52.826Z,98548.10
2019-02-05T08:01:22.397Z,98549.60
2019-02-05T08:03:51.882Z,98544.41
2019-02-05T08:06:21.487Z,98545.77
2019-02-05T08:08:50.965Z,98545.23
2019-02-05T08:11:20.556Z,98543.38
2019-02-05T08:13:50.034Z,98550.41
2019-02-05T08:16:19.915Z,98548.61
2019-02-05T08:18:49.605Z,98550.77
2019-02-05T08:21:19.103Z,98544.98
2019-02-05T08:23:48.573Z,98553.06
2019-02-05T08:26:18.086Z,98553.31
2019-02-05T08:28:47.740Z,98552.30
2019-02-05T08:31:17.201Z,98555.58
2019-02-05T08:33:47.073Z,98550.88
2019-02-05T08:36:16.540Z,98550.80
2019-02-05T08:38:46.046Z,98549.02
2019-02-05T08:41:15.518Z,98546.16
2019-02-05T08:43:44.993Z,98544.55
2019-02-05T08:46:14.457Z,98547.50
2019-02-05T08:48:43.949Z,98545.83
2019-02-05T08:51:13.785Z,98549.06
2019-02-05T08:53:43.273Z,98546.33
2019-02-05T08:56:12.755Z,98549.46
2019-02-05T08:58:42.230Z,98549.05
2019-02-05T09:01:14.409Z,98548.03
2019-02-05T09:03:42.926Z,98550.89
2019-02-05T09:06:12.536Z,98558.11
2019-02-05T09:08:41.981Z,98554.70
2019-02-05T09:11:11.569Z,98553.61
2019-02-05T09:13:41.038Z,98560.48
2019-02-05T09:16:10.502Z,98554.08
2019-02-05T09:18:40.102Z,98557.81
2019-02-05T09:21:09.755Z,98561.61
2019-02-05T09:23:39.521Z,98562.00
2019-02-05T09:26:09.051Z,98557.38
2019-02-05T09:28:38.523Z,98556.70
2019-02-05T09:31:08.000Z,98554.39
2019-02-05T09:33:37.490Z,98557.04
2019-02-05T09:36:06.961Z,98556.30
2019-02-05T09:38:36.810Z,98559.08
2019-02-05T09:41:06.308Z,98567.91
2019-02-05T09:43:35.855Z,98565.19
2019-02-05T09:46:05.360Z,98565.37
2019-02-05T09:48:34.924Z,98566.41
2019-02-05T09:51:04.358Z,98572.35
2019-02-05T09:53:33.887Z,98571.17
2019-02-05T09:56:03.659Z,98561.72
2019-02-05T09:58:37.735Z,98562.41
2019-02-05T10:01:07.325Z,98564.85
2019-02-05T10:03:36.876Z,98571.31
2019-02-05T10:06:06.423Z,98563.95
2019-02-05T10:08:35.993Z,98563.22
2019-02-05T10:11:05.938Z,98569.72
2019-02-05T10:13:35.475Z,98559.69
2019-02-05T10:16:04.993Z,98559.26
2019-02-05T10:18:34.526Z,98559.47
2019-02-05T10:21:04.164Z,98554.50
2019-02-05T10:23:33.642Z,98550.11
2019-02-05T10:26:03.187Z,98540.94
2019-02-05T10:28:32.724Z,98547.51
2019-02-05T10:31:02.242Z,98549.18
2019-02-05T10:33:31.763Z,98546.26
2019-02-05T10:36:01.561Z,98543.97
2019-02-05T10:38:31.014Z,98543.86
2019-02-05T10:41:00.514Z,98543.11
2019-02-05T10:43:30.275Z,98541.92
2019-02-05T10:45:59.840Z,98543.03
2019-02-05T10:48:29.458Z,98533.77
2019-02-05T10:50:58.967Z,98525.72
2019-02-05T10:53:28.521Z,98516.83
2019-02-05T10:55:58.302Z,98521.95
2019-02-05T10:58:28.280Z,98526.50
2019-02-05T11:00:57.843Z,98524.72
2019-02-05T11:03:27.367Z,98520.31
2019-02-05T11:05:56.944Z,98520.20
2019-02-05T11:08:26.428Z,98520.42
2019-02-05T11:10:55.939Z,98529.89
2019-02-05T11:13:25.494Z,98523.83
2019-02-05T11:15:55.271Z,98529.66
2019-02-05T11:18:24.871Z,98532.73
2019-02-05T11:20:54.509Z,98542.48
2019-02-05T11:23:23.982Z,98532.39
2019-02-05T11:25:53.541Z,98525.94
2019-02-05T11:28:23.096Z,98525.19
2019-02-05T11:30:54.305Z,98521.80
2019-02-05T11:33:23.886Z,98526.72
2019-02-05T11:35:53.373Z,98519.35
2019-02-05T11:38:22.877Z,98516.00
2019-02-05T11:40:52.345Z,98506.50
2019-02-05T11:43:21.747Z,98501.98
2019-02-05T11:45:51.314Z,98490.70
2019-02-05T11:48:20.796Z,98496.34
2019-02-05T11:50:50.300Z,98495.52
2019-02-05T11:53:19.823Z,98494.62
2019-02-05T11:55:49.379Z,98488.72
2019-02-05T11:58:18.874Z,98483.56
2019-02-05T12:00:52.844Z,98488.62
2019-02-05T12:03:22.715Z,98481.38
2019-02-05T12:05:52.255Z,98497.82
2019-02-05T12:08:21.791Z,98474.20
2019-02-05T12:10:51.388Z,98487.70
2019-02-05T12:13:20.878Z,98471.61
2019-02-05T12:15:50.467Z,98469.37
2019-02-05T12:18:20.017Z,98480.72
2019-02-05T12:20:49.898Z,98473.77
2019-02-05T12:23:19.461Z,98486.48
2019-02-05T12:25:48.942Z,98480.46
2019-02-05T12:28:37.999Z,98476.34
2019-02-05T12:31:08.011Z,98473.84
2019-02-05T12:33:37.752Z,98473.25
2019-02-05T12:36:07.359Z,98471.53
2019-02-05T12:38:36.839Z,98469.23
2019-02-05T12:41:06.329Z,98465.07
2019-02-05T12:43:35.836Z,98463.58
2019-02-05T12:46:05.312Z,98461.36
2019-02-05T12:48:34.815Z,98465.69
2019-02-05T12:51:04.735Z,98461.13
2019-02-05T12:53:34.215Z,98460.63
2019-02-05T12:56:03.691Z,98453.17
2019-02-05T12:58:33.212Z,98446.98
2019-02-05T13:01:02.838Z,98437.66
2019-02-05T13:03:32.311Z,98441.61
2019-02-05T13:06:01.950Z,98441.04
2019-02-05T13:08:31.431Z,98434.91
2019-02-05T13:11:00.919Z,98435.39
2019-02-05T13:13:30.430Z,98429.14
2019-02-05T13:15:59.910Z,98429.52
2019-02-05T13:18:29.390Z,98422.97
2019-02-05T13:20:58.894Z,98417.55
2019-02-05T13:23:28.358Z,98435.72
2019-02-05T13:25:57.846Z,98431.81
2019-02-05T13:28:27.347Z,98435.99
2019-02-05T13:31:07.722Z,98432.91
2019-02-05T13:33:29.791Z,98426.51
2019-02-05T13:35:59.363Z,98430.56
2019-02-05T13:38:28.878Z,98422.95
2019-02-05T13:40:58.402Z,98421.08
2019-02-05T13:43:27.876Z,98421.75
2019-02-05T13:45:58.370Z,98422.75
2019-02-05T13:48:27.824Z,98420.44
2019-02-05T13:50:57.305Z,98419.91
2019-02-05T13:53:26.776Z,98416.19
2019-02-05T13:55:56.278Z,98414.47
2019-02-05T13:58:25.760Z,98421.67
2019-02-05T14:00:55.245Z,98421.05
2019-02-05T14:03:24.741Z,98427.14
2019-02-05T14:05:54.246Z,98424.06
2019-02-05T14:08:23.720Z,98420.55
2019-02-05T14:10:54.348Z,98412.30
2019-02-05T14:13:23.822Z,98422.25
2019-02-05T14:15:55.170Z,98415.34
2019-02-05T14:18:24.750Z,98417.19
2019-02-05T14:20:54.215Z,98426.80
2019-02-05T14:23:23.697Z,98426.12
2019-02-05T14:25:53.200Z,98432.08
2019-02-05T14:28:22.690Z,98433.47
2019-02-05T14:30:54.113Z,98428.66
2019-02-05T14:33:23.592Z,98426.50
2019-02-05T14:35:53.073Z,98435.16
2019-02-05T14:38:22.577Z,98438.67
2019-02-05T14:40:52.075Z,98437.91
2019-02-05T14:43:21.539Z,98441.78
2019-02-05T14:45:51.186Z,98441.33
2019-02-05T14:48:20.675Z,98450.05
2019-02-05T14:50:50.157Z,98449.75
2019-02-05T14:53:19.803Z,98444.31
2019-02-05T14:56:08.633Z,98448.81
2019-02-05T14:58:38.068Z,98447.86
2019-02-05T15:01:07.674Z,98455.20
2019-02-05T15:03:37.205Z,98454.66
2019-02-05T15:06:06.712Z,98453.00
2019-02-05T15:08:36.194Z,98457.38
2019-02-05T15:11:05.676Z,98450.75
2019-02-05T15:13:35.195Z,98451.78
2019-02-05T15:16:04.699Z,98449.55
2019-02-05T15:18:34.437Z,98456.08
2019-02-05T15:21:03.950Z,98458.20
2019-02-05T15:23:34.117Z,98453.44
2019-02-05T15:26:03.605Z,98454.21
2019-02-05T15:28:33.218Z,98465.98
2019-02-05T15:31:02.684Z,98464.61
2019-02-05T15:33:42.797Z,98470.38
2019-02-05T15:36:17.236Z,98464.84
2019-02-05T15:38:46.812Z,98464.92
2019-02-05T15:41:16.295Z,98459.46
2019-02-05T15:43:45.772Z,98454.45
2019-02-05T15:46:15.386Z,98460.52
2019-02-05T15:48:44.869Z,98466.31
2019-02-05T15:51:14.454Z,98466.78
2019-02-05T15:53:44.067Z,98473.52
2019-02-05T15:56:13.540Z,98475.86
2019-02-05T15:58:43.006Z,98473.52
2019-02-05T16:01:12.709Z,98475.47
2019-02-05T16:03:42.585Z,98473.66
2019-02-05T16:06:12.035Z,98475.30
2019-02-05T16:08:41.574Z,98478.53
2019-02-05T16:11:11.031Z,98478.02
2019-02-05T16:13:40.584Z,98481.98
2019-02-05T16:16:10.091Z,98481.77
2019-02-05T16:18:39.575Z,98485.05
2019-02-05T16:21:09.045Z,98486.77
2019-02-05T16:23:38.565Z,98488.44
2019-02-05T16:26:08.036Z,98493.66
2019-02-05T16:28:37.499Z,98491.83
2019-02-05T16:31:07.040Z,98492.25
2019-02-05T16:33:36.592Z,98491.06
2019-02-05T16:36:06.069Z,98490.47
2019-02-05T16:38:35.568Z,98489.81
2019-02-05T16:41:05.276Z,98491.30
2019-02-05T16:43:34.799Z,98502.27
2019-02-05T16:46:04.586Z,98505.36
2019-02-05T16:48:34.066Z,98501.79
2019-02-05T16:51:03.840Z,98501.30
2019-02-05T16:53:33.342Z,98508.93
2019-02-05T16:56:02.828Z,98506.61
2019-02-05T16:58:32.303Z,98502.30
2019-02-05T17:01:02.226Z,98501.30
2019-02-05T17:03:31.923Z,98500.47
2019-02-05T17:06:01.409Z,98491.80
2019-02-05T17:08:30.905Z,98498.30
2019-02-05T17:11:00.383Z,98496.73
2019-02-05T17:13:30.094Z,98494.99
2019-02-05T17:15:59.610Z,98499.20
2019-02-05T17:18:29.568Z,98499.88
2019-02-05T17:20:59.238Z,98499.72
2019-02-05T17:23:28.741Z,98501.50
2019-02-05T17:25:58.334Z,98509.28
2019-02-05T17:28:27.906Z,98505.25
2019-02-05T17:30:57.519Z,98517.22
2019-02-05T17:33:27.382Z,98514.27
2019-02-05T17:35:56.862Z,98514.30
2019-02-05T17:38:26.443Z,98509.97
2019-02-05T17:40:56.027Z,98518.33
2019-02-05T17:43:25.502Z,98522.25
2019-02-05T17:45:55.011Z,98526.58
2019-02-05T17:48:24.966Z,98524.20
2019-02-05T17:50:54.467Z,98522.19
2019-02-05T17:53:24.013Z,98522.00
2019-02-05T17:55:53.475Z,98522.75
2019-02-05T17:58:22.978Z,98525.84
2019-02-05T18:00:54.068Z,98520.24
2019-02-05T18:03:24.091Z,98519.14
2019-02-05T18:05:53.639Z,98518.86
2019-02-05T18:08:23.093Z,98517.73
2019-02-05T18:10:52.725Z,98519.41
2019-02-05T18:13:22.222Z,98516.47
2019-02-05T18:15:51.841Z,98521.69
2019-02-05T18:18:21.695Z,98522.46
2019-02-05T18:20:51.172Z,98525.13
2019-02-05T18:23:20.675Z,98520.11
2019-02-05T18:28:38.768Z,98519.81
2019-02-05T18:31:08.253Z,98520.13
2019-02-05T18:33:37.737Z,98523.00
2019-02-05T18:36:07.247Z,98520.05
2019-02-05T18:38:36.721Z,98521.02
2019-02-05T18:41:06.231Z,98519.11
2019-02-05T18:43:43.471Z,98525.17
2019-02-05T18:46:12.967Z,98523.75
2019-02-05T18:48:42.433Z,98528.41
2019-02-05T18:51:11.965Z,98531.94
2019-02-05T18:53:41.472Z,98527.34
2019-02-05T18:56:11.529Z,98526.88
2019-02-05T18:58:41.100Z,98528.80
2019-02-05T19:01:10.667Z,98530.61
2019-02-05T19:03:40.169Z,98532.64
2019-02-05T19:06:09.827Z,98532.14
2019-02-05T19:08:39.326Z,98533.79
2019-02-05T19:11:09.371Z,98536.25
2019-02-05T19:13:38.884Z,98532.84
2019-02-05T19:16:08.361Z,98533.58
2019-02-05T19:18:37.841Z,98530.02
2019-02-05T19:21:07.339Z,98526.36
2019-02-05T19:23:37.556Z,98536.20
2019-02-05T19:26:09.063Z,98532.86
2019-02-05T19:28:38.919Z,98531.96
2019-02-05T19:31:09.972Z,98532.53
2019-02-05T19:33:39.670Z,98539.60
2019-02-05T19:36:09.190Z,98531.48
2019-02-05T19:38:38.797Z,98529.11
2019-02-05T19:41:08.354Z,98530.97
2019-02-05T19:43:37.883Z,98531.81
2019-02-05T19:46:20.922Z,98535.54
2019-02-05T19:48:52.082Z,98533.45
2019-02-05T19:51:21.739Z,98527.89
2019-02-05T19:53:53.830Z,98526.78
2019-02-05T19:56:22.439Z,98529.23
2019-02-05T19:58:51.922Z,98527.24
2019-02-05T20:01:21.538Z,98530.04
2019-02-05T20:03:51.046Z,98533.97
2019-02-05T20:06:20.534Z,98529.73
2019-02-05T20:08:50.152Z,98538.13
2019-02-05T20:11:19.973Z,98531.52
2019-02-05T20:13:49.477Z,98533.10
2019-02-05T20:16:19.048Z,98533.52
2019-02-05T20:18:48.532Z,98528.76
2019-02-05T20:21:18.002Z,98526.84
2019-02-05T20:23:47.610Z,98524.75
2019-02-05T20:26:17.566Z,98525.09
2019-02-05T20:28:47.096Z,98526.23
2019-02-05T20:31:16.659Z,98529.31
2019-02-05T20:33:49.908Z,98533.92
2019-02-05T20:36:17.489Z,98528.52
2019-02-05T20:38:47.085Z,98529.81
2019-02-05T20:41:16.944Z,98524.25
2019-02-05T20:43:46.841Z,98530.02
2019-02-05T20:46:16.311Z,98526.82
2019-02-05T20:48:45.796Z,98524.68
2019-02-05T20:51:15.349Z,98528.98
2019-02-05T20:53:44.852Z,98527.16
2019-02-05T20:56:14.524Z,98531.22
2019-02-05T20:58:44.522Z,98532.30
2019-02-05T21:01:14.071Z,98530.77
2019-02-05T21:03:43.568Z,98516.30
2019-02-05T21:06:13.075Z,98539.50
2019-02-05T21:08:42.592Z,98537.89
2019-02-05T21:11:12.694Z,98534.62
2019-02-05T21:13:42.180Z,98542.39
2019-02-05T21:16:11.668Z,98543.70
2019-02-05T21:18:41.137Z,98547.92
2019-02-05T21:21:10.656Z,98545.00
2019-02-05T21:23:40.155Z,98540.78
2019-02-05T21:26:09.642Z,98547.72
2019-02-05T21:28:39.141Z,98542.80
2019-02-05T21:31:08.850Z,98539.08
2019-02-05T21:33:38.310Z,98544.77
2019-02-05T21:36:07.806Z,98545.77
2019-02-05T21:38:37.308Z,98547.25
2019-02-05T21:41:08.063Z,98550.02
2019-02-05T21:43:37.582Z,98547.98
2019-02-05T21:46:07.249Z,98545.91
2019-02-05T21:48:36.716Z,98548.97
2019-02-05T21:51:06.222Z,98550.10
2019-02-05T21:53:35.703Z,98552.53
2019-02-05T21:56:05.185Z,98553.16
2019-02-05T21:58:34.697Z,98546.25
2019-02-05T22:01:05.375Z,98553.14
2019-02-05T22:03:35.028Z,98550.58
2019-02-05T22:06:04.630Z,98550.30
2019-02-05T22:08:34.263Z,98550.12
2019-02-05T22:11:03.750Z,98546.78
2019-02-05T22:13:33.306Z,98548.86
2019-02-05T22:16:02.780Z,98545.03
2019-02-05T22:18:32.431Z,98557.08
2019-02-05T22:21:02.336Z,98553.70
2019-02-05T22:23:32.285Z,98545.03
2019-02-05T22:26:01.799Z,98544.45
2019-02-05T22:28:31.368Z,98551.50
2019-02-05T22:31:00.876Z,98549.28
2019-02-05T22:33:30.693Z,98543.69
2019-02-05T22:36:00.575Z,98547.25
2019-02-05T22:38:30.070Z,98544.56
2019-02-05T22:40:59.641Z,98551.38
2019-02-05T22:43:29.254Z,98545.48
2019-02-05T22:45:58.909Z,98542.14
2019-02-05T22:48:28.817Z,98538.31
2019-02-05T22:50:58.332Z,98542.98
2019-02-05T22:53:28.219Z,98546.16
2019-02-05T22:55:57.741Z,98545.55
2019-02-05T22:58:27.338Z,98542.16
2019-02-05T23:01:25.358Z,98541.53
2019-02-05T23:04:00.273Z,98538.80
2019-02-05T23:06:46.205Z,98534.02
2019-02-05T23:09:35.104Z,98534.52
2019-02-05T23:12:18.508Z,98541.70
2019-02-05T23:14:55.673Z,98538.20
2019-02-05T23:17:25.155Z,98535.16
2019-02-05T23:19:54.651Z,98535.13
2019-02-05T23:22:24.219Z,98532.58
2019-02-05T23:24:53.703Z,98522.50
2019-02-05T23:27:23.776Z,98526.03
2019-02-05T23:29:53.332Z,98531.00
2019-02-05T23:32:22.819Z,98526.51
2019-02-05T23:35:02.085Z,98532.91
2019-02-05T23:37:23.572Z,98529.89
2019-02-05T23:39:53.066Z,98533.88
2019-02-05T23:42:22.977Z,98540.23
2019-02-05T23:44:52.562Z,98533.23
2019-02-05T23:47:22.091Z,98534.33
2019-02-05T23:49:51.816Z,98530.34
2019-02-05T23:52:21.408Z,98526.51
2019-02-05T23:54:50.945Z,98523.14
2019-02-05T23:57:20.834Z,98523.63
2019-02-05T23:59:50.304Z,98520.58
